Gas Snapper — V7TZ3 — position and weather

sailwx.info

Track history (hours):
 
Tides and Currents Weather Stations Pressure Air Temp Water Temp Dewpoint Dewpoint Depression Visibility Wind Speed Wind Dir Waves Ship Positions

Gas Snapper

Last reported at 2015-Mar-30 17:33 UTC. Time now 2015-Mar-30 17:37 UTC.
Position N 38°37' W 010°11'.

Length 174 m; draft 6.6 m.

Type: Ship (hazmat cat D). MMSI: 538003911.

Date/timePositionNaut miles runAvg speedWind from/ knotsBaromVisibWave heightAir tempDewpointWater temp
2015-Mar-30 17:33N 38°37' W 010°11'1817.2
2015-Mar-30 16:32N 38°55' W 010°13'2017.4
2015-Mar-30 15:23N 39°15' W 010°14'2017.1
2015-Mar-30 14:13N 39°35' W 010°13'59414.3
2015-Mar-28 20:33N 48°56' W 005°43'21013.6
2015-Mar-28 05:07N 50°23' W 000°48'3714.4
2015-Mar-28 02:33N 50°33' E 000°08'1414.1
2015-Mar-28 01:33N 50°37' E 000°29'1514.9
2015-Mar-28 00:34N 50°45' E 000°49'1616.0
2015-Mar-27 23:33N 50°55' E 001°09'1615.6
2015-Mar-27 22:33N 51°05' E 001°28'1514.7
2015-Mar-27 21:34N 51°15' E 001°46'1413.5
2015-Mar-27 20:33N 51°25' E 002°00'1413.8
2015-Mar-27 19:33N 51°21' E 002°22'1313.1
2015-Mar-27 18:33N 51°22' E 002°43'1312.9
2015-Mar-27 17:34N 51°25' E 003°03'1313.1
2015-Mar-27 16:33N 51°25' E 003°24'1010.0
2015-Mar-27 15:33N 51°26' E 003°40'1010.4
2015-Mar-27 14:34N 51°22' E 003°55'9 9.4
2015-Mar-27 13:34N 51°23' E 004°10'5 5.3
2015-Mar-27 12:34N 51°21' E 004°17'0 0.0
2015-Mar-27 11:34N 51°21' E 004°17'1 0.7
2015-Mar-27 10:33N 51°21' E 004°18'0 0.4
2015-Mar-27 09:29N 51°22' E 004°18'0 0.0
2015-Mar-27 08:32N 51°22' E 004°18'0 0.0
2015-Mar-27 07:29N 51°22' E 004°18'0 0.0
2015-Mar-27 06:26N 51°22' E 004°18'0 0.0
2015-Mar-27 05:31N 51°22' E 004°18'0 0.0
2015-Mar-27 04:26N 51°22' E 004°18'0 0.0
2015-Mar-27 03:17N 51°22' E 004°18'0 0.0
2015-Mar-27 02:32N 51°22' E 004°18'0 0.0
2015-Mar-27 01:32N 51°22' E 004°18'0 0.0
2015-Mar-27 00:32N 51°22' E 004°18'0 0.0
2015-Mar-26 23:26N 51°22' E 004°18'0 0.0
2015-Mar-26 22:17N 51°22' E 004°18'0 0.0
2015-Mar-26 21:23N 51°22' E 004°18'0 0.0
2015-Mar-26 20:29N 51°22' E 004°18'0 0.0
2015-Mar-26 18:32N 51°22' E 004°18'0 0.0
2015-Mar-26 17:29N 51°22' E 004°18'0 0.0
2015-Mar-26 16:32N 51°22' E 004°18'0 0.0
2015-Mar-26 15:32N 51°22' E 004°18'0 0.0
2015-Mar-26 14:29N 51°22' E 004°18'0 0.0
2015-Mar-26 13:26N 51°22' E 004°18'0 0.0
2015-Mar-26 12:32N 51°22' E 004°18'0 0.0
2015-Mar-26 11:32N 51°22' E 004°18'0 0.0
2015-Mar-26 10:23N 51°22' E 004°18'0 0.0
2015-Mar-26 09:17N 51°22' E 004°18'0 0.0
2015-Mar-26 08:26N 51°22' E 004°18'0 0.0
2015-Mar-26 07:26N 51°22' E 004°18'0 0.0
2015-Mar-26 06:17N 51°22' E 004°18'0 0.0
2015-Mar-26 05:26N 51°22' E 004°18'0 0.0
2015-Mar-26 04:32N 51°22' E 004°18'0 0.0
2015-Mar-26 03:23N 51°22' E 004°18'0 0.0
2015-Mar-26 02:14N 51°22' E 004°18'0 0.0
2015-Mar-26 01:14N 51°22' E 004°18'0 0.0
2015-Mar-26 00:20N 51°22' E 004°18'0 0.0
2015-Mar-25 23:23N 51°22' E 004°18'1 1.0
2015-Mar-25 22:34N 51°21' E 004°18'0 0.5
2015-Mar-25 21:34N 51°21' E 004°17'0 0.3
2015-Mar-25 20:34N 51°21' E 004°17'2 1.7
2015-Mar-25 19:33N 51°21' E 004°14'5 5.3
2015-Mar-25 18:33N 51°22' E 004°06'5 5.5
2015-Mar-25 17:34N 51°23' E 003°57'1211.8
2015-Mar-25 16:34N 51°26' E 003°39'1515.2
2015-Mar-25 15:33N 51°25' E 003°14'1515.5
2015-Mar-25 14:33N 51°24' E 002°50'1111.5
2015-Mar-25 13:34N 51°22' E 002°32'1313.4
2015-Mar-25 12:34N 51°16' E 002°12'1312.8
2015-Mar-25 11:34N 51°10' E 001°54'1212.0
2015-Mar-25 10:34N 51°02' E 001°40'1211.6
2015-Mar-25 09:34N 50°54' E 001°27'1412.6
2015-Mar-25 08:28N 50°41' E 001°19'2713.4
2015-Mar-25 06:26N 50°28' E 000°41'1213.9
2015-Mar-25 05:33N 50°24' E 000°23'  
2015-Mar-22 17:20N 39°14' W 009°57'1214.9
2015-Mar-22 16:32N 39°02' W 009°57'1414.8
2015-Mar-22 15:33N 38°47' W 009°57'1414.4
2015-Mar-22 14:33N 38°33' W 009°55'1514.8
2015-Mar-22 13:33N 38°19' W 009°50'1515.1
2015-Mar-22 12:33N 38°04' W 009°46'1515.2
2015-Mar-22 11:33N 37°49' W 009°41'1615.3
2015-Mar-22 10:31N 37°34' W 009°37'1715.1
2015-Mar-22 09:22N 37°17' W 009°32'4214.1
2015-Mar-22 06:23N 36°39' W 009°07'17614.8
2015-Mar-21 18:30N 35°57' W 005°36'1111.7
2015-Mar-21 17:33N 36°01' W 005°23'1312.6
2015-Mar-21 16:33N 36°05' W 005°08'  
Track history (hours):
 
Tides and Currents Weather Stations Pressure Air Temp Water Temp Dewpoint Dewpoint Depression Visibility Wind Speed Wind Dir Waves Ship Positions

Gas Snapper

Last reported at 2015-Mar-30 17:33 UTC. Time now 2015-Mar-30 17:37 UTC.
Position N 38°37' W 010°11'.

Length 174 m; draft 6.6 m.

Type: Ship (hazmat cat D). MMSI: 538003911.

Date/timePositionNaut miles runAvg speedWind from/ knotsBaromVisibWave heightAir tempDewpointWater temp
2015-Mar-30 17:33N 38°37' W 010°11'1817.2
2015-Mar-30 16:32N 38°55' W 010°13'2017.4
2015-Mar-30 15:23N 39°15' W 010°14'2017.1
2015-Mar-30 14:13N 39°35' W 010°13'59414.3
2015-Mar-28 20:33N 48°56' W 005°43'21013.6
2015-Mar-28 05:07N 50°23' W 000°48'3714.4
2015-Mar-28 02:33N 50°33' E 000°08'1414.1
2015-Mar-28 01:33N 50°37' E 000°29'1514.9
2015-Mar-28 00:34N 50°45' E 000°49'1616.0
2015-Mar-27 23:33N 50°55' E 001°09'1615.6
2015-Mar-27 22:33N 51°05' E 001°28'1514.7
2015-Mar-27 21:34N 51°15' E 001°46'1413.5
2015-Mar-27 20:33N 51°25' E 002°00'1413.8
2015-Mar-27 19:33N 51°21' E 002°22'1313.1
2015-Mar-27 18:33N 51°22' E 002°43'1312.9
2015-Mar-27 17:34N 51°25' E 003°03'1313.1
2015-Mar-27 16:33N 51°25' E 003°24'1010.0
2015-Mar-27 15:33N 51°26' E 003°40'1010.4
2015-Mar-27 14:34N 51°22' E 003°55'9 9.4
2015-Mar-27 13:34N 51°23' E 004°10'5 5.3
2015-Mar-27 12:34N 51°21' E 004°17'0 0.0
2015-Mar-27 11:34N 51°21' E 004°17'1 0.7
2015-Mar-27 10:33N 51°21' E 004°18'0 0.4
2015-Mar-27 09:29N 51°22' E 004°18'0 0.0
2015-Mar-27 08:32N 51°22' E 004°18'0 0.0
2015-Mar-27 07:29N 51°22' E 004°18'0 0.0
2015-Mar-27 06:26N 51°22' E 004°18'0 0.0
2015-Mar-27 05:31N 51°22' E 004°18'0 0.0
2015-Mar-27 04:26N 51°22' E 004°18'0 0.0
2015-Mar-27 03:17N 51°22' E 004°18'0 0.0
2015-Mar-27 02:32N 51°22' E 004°18'0 0.0
2015-Mar-27 01:32N 51°22' E 004°18'0 0.0
2015-Mar-27 00:32N 51°22' E 004°18'0 0.0
2015-Mar-26 23:26N 51°22' E 004°18'0 0.0
2015-Mar-26 22:17N 51°22' E 004°18'0 0.0
2015-Mar-26 21:23N 51°22' E 004°18'0 0.0
2015-Mar-26 20:29N 51°22' E 004°18'0 0.0
2015-Mar-26 18:32N 51°22' E 004°18'0 0.0
2015-Mar-26 17:29N 51°22' E 004°18'0 0.0
2015-Mar-26 16:32N 51°22' E 004°18'0 0.0
2015-Mar-26 15:32N 51°22' E 004°18'0 0.0
2015-Mar-26 14:29N 51°22' E 004°18'0 0.0
2015-Mar-26 13:26N 51°22' E 004°18'0 0.0
2015-Mar-26 12:32N 51°22' E 004°18'0 0.0
2015-Mar-26 11:32N 51°22' E 004°18'0 0.0
2015-Mar-26 10:23N 51°22' E 004°18'0 0.0
2015-Mar-26 09:17N 51°22' E 004°18'0 0.0
2015-Mar-26 08:26N 51°22' E 004°18'0 0.0
2015-Mar-26 07:26N 51°22' E 004°18'0 0.0
2015-Mar-26 06:17N 51°22' E 004°18'0 0.0
2015-Mar-26 05:26N 51°22' E 004°18'0 0.0
2015-Mar-26 04:32N 51°22' E 004°18'0 0.0
2015-Mar-26 03:23N 51°22' E 004°18'0 0.0
2015-Mar-26 02:14N 51°22' E 004°18'0 0.0
2015-Mar-26 01:14N 51°22' E 004°18'0 0.0
2015-Mar-26 00:20N 51°22' E 004°18'0 0.0
2015-Mar-25 23:23N 51°22' E 004°18'1 1.0
2015-Mar-25 22:34N 51°21' E 004°18'0 0.5
2015-Mar-25 21:34N 51°21' E 004°17'0 0.3
2015-Mar-25 20:34N 51°21' E 004°17'2 1.7
2015-Mar-25 19:33N 51°21' E 004°14'5 5.3
2015-Mar-25 18:33N 51°22' E 004°06'5 5.5
2015-Mar-25 17:34N 51°23' E 003°57'1211.8
2015-Mar-25 16:34N 51°26' E 003°39'1515.2
2015-Mar-25 15:33N 51°25' E 003°14'1515.5
2015-Mar-25 14:33N 51°24' E 002°50'1111.5
2015-Mar-25 13:34N 51°22' E 002°32'1313.4
2015-Mar-25 12:34N 51°16' E 002°12'1312.8
2015-Mar-25 11:34N 51°10' E 001°54'1212.0
2015-Mar-25 10:34N 51°02' E 001°40'1211.6
2015-Mar-25 09:34N 50°54' E 001°27'1412.6
2015-Mar-25 08:28N 50°41' E 001°19'2713.4
2015-Mar-25 06:26N 50°28' E 000°41'1213.9
2015-Mar-25 05:33N 50°24' E 000°23'  
2015-Mar-22 17:20N 39°14' W 009°57'1214.9
2015-Mar-22 16:32N 39°02' W 009°57'1414.8
2015-Mar-22 15:33N 38°47' W 009°57'1414.4
2015-Mar-22 14:33N 38°33' W 009°55'1514.8
2015-Mar-22 13:33N 38°19' W 009°50'1515.1
2015-Mar-22 12:33N 38°04' W 009°46'1515.2
2015-Mar-22 11:33N 37°49' W 009°41'1615.3
2015-Mar-22 10:31N 37°34' W 009°37'1715.1
2015-Mar-22 09:22N 37°17' W 009°32'4214.1
2015-Mar-22 06:23N 36°39' W 009°07'17614.8
2015-Mar-21 18:30N 35°57' W 005°36'1111.7
2015-Mar-21 17:33N 36°01' W 005°23'1312.6
2015-Mar-21 16:33N 36°05' W 005°08'  

Dump ship's entire track history